Time;durP1;ratioP1;P1;durP2;ratioP2;P2;SDS_P1;SDS_P2;PMS_P1;PMS_P2;Temp;Humidity;BMP_temperature;BMP_pressure;BME280_temperature;BME280_humidity;BME280_pressure;Samples;Min_cycle;Max_cycle;Signal;HPM_P1;HPM_P2
2023/12/17 00:00:53;;;;;;;;;;;;;;;2.61;76.24;97100.16;5113769;28;976;-62
2023/12/17 00:03:19;;;;;;;;;;;;;;;2.59;76.65;97102.03;5113940;28;1905;-62
2023/12/17 00:05:44;;;;;;;;;;;;;;;2.65;76.29;97109.69;5095903;28;965;-62
2023/12/17 00:08:10;;;;;;;;;;;;;;;2.57;75.92;97112.66;5114009;28;1052;-62
2023/12/17 00:10:36;;;;;;;;;;;;;;;2.61;75.77;97118.66;5113713;28;1068;-62
2023/12/17 00:13:04;;;;;;;;;;;;;;;2.59;75.67;97123.16;5113722;28;1023;-62
2023/12/17 00:15:30;;;;;;;;;;;;;;;2.65;75.12;97128.16;5113585;28;1270;-61
2023/12/17 00:17:56;;;;;;;;;;;;;;;2.63;75.07;97132.66;5113602;28;1094;-62
2023/12/17 00:20:22;;;;;;;;;;;;;;;2.48;76.00;97129.72;5113747;28;1059;-62
2023/12/17 00:22:48;;;;;;;;;;;;;;;2.41;76.67;97133.56;5113557;28;1910;-61
2023/12/17 00:25:14;;;;;;;;;;;;;;;2.29;77.20;97140.16;5113436;28;1087;-62
2023/12/17 00:27:40;;;;;;;;;;;;;;;2.39;76.90;97145.09;5113835;28;1043;-62
2023/12/17 00:30:06;;;;;;;;;;;;;;;2.51;76.09;97142.81;5095338;28;1029;-62
2023/12/17 00:32:32;;;;;;;;;;;;;;;2.54;75.04;97144.44;5113392;28;1095;-62
2023/12/17 00:34:58;;;;;;;;;;;;;;;2.54;75.26;97155.00;5113658;28;1044;-62
2023/12/17 00:37:24;;;;;;;;;;;;;;;2.38;75.87;97162.72;5113519;28;1052;-62
2023/12/17 00:39:50;;;;;;;;;;;;;;;2.43;75.57;97162.50;5113396;28;1017;-62
2023/12/17 00:42:16;;;;;;;;;;;;;;;2.33;76.25;97168.19;5113188;28;1988;-62
2023/12/17 00:44:42;;;;;;;;;;;;;;;2.34;76.07;97172.53;5116303;28;1096;-62
2023/12/17 00:47:08;;;;;;;;;;;;;;;2.21;76.80;97168.66;5117752;28;973;-62
2023/12/17 00:49:34;;;;;;;;;;;;;;;2.23;75.84;97171.25;5117593;28;948;-62
2023/12/17 00:52:00;;;;;;;;;;;;;;;2.22;76.57;97164.22;5117657;28;972;-61
2023/12/17 00:54:26;;;;;;;;;;;;;;;2.25;76.06;97172.03;5123748;27;1181;-62
2023/12/17 00:56:52;;;;;;;;;;;;;;;2.24;76.76;97170.31;5138146;27;1039;-62
2023/12/17 00:59:18;;;;;;;;;;;;;;;2.21;76.93;97173.09;5137648;27;886;-62
2023/12/17 01:01:43;;;;;;;;;;;;;;;2.21;76.75;97171.31;5137679;27;1992;-62
2023/12/17 01:04:09;;;;;;;;;;;;;;;2.28;75.78;97174.56;5137944;27;1003;-61
2023/12/17 01:06:36;;;;;;;;;;;;;;;2.43;74.91;97181.88;5137866;27;1049;-61
2023/12/17 01:09:02;;;;;;;;;;;;;;;2.38;75.63;97186.47;5137629;27;1055;-62
2023/12/17 01:11:28;;;;;;;;;;;;;;;2.31;75.41;97177.06;5137466;27;1130;-62
2023/12/17 01:13:54;;;;;;;;;;;;;;;2.23;75.27;97181.81;5137473;27;1064;-62
2023/12/17 01:16:20;;;;;;;;;;;;;;;2.17;75.69;97182.06;5137428;27;1505;-61
2023/12/17 01:18:46;;;;;;;;;;;;;;;2.31;75.58;97187.63;5137594;27;1035;-61
2023/12/17 01:21:12;;;;;;;;;;;;;;;2.25;75.51;97185.25;5137436;27;999;-61
2023/12/17 01:23:38;;;;;;;;;;;;;;;2.25;75.19;97185.25;5137106;27;1982;-61
2023/12/17 01:26:04;;;;;;;;;;;;;;;2.24;74.96;97183.50;5137566;27;1209;-61
2023/12/17 01:28:30;;;;;;;;;;;;;;;2.34;74.78;97182.25;5137368;27;946;-61
2023/12/17 01:30:56;;;;;;;;;;;;;;;2.26;74.96;97184.34;5137392;27;1033;-61
2023/12/17 01:33:22;;;;;;;;;;;;;;;2.25;75.30;97190.53;5137283;27;1055;-61
2023/12/17 01:35:48;;;;;;;;;;;;;;;2.20;75.11;97188.06;5137369;27;977;-61
2023/12/17 01:38:14;;;;;;;;;;;;;;;2.09;75.41;97191.13;5137081;27;981;-62
2023/12/17 01:40:40;;;;;;;;;;;;;;;2.05;75.15;97189.53;5137087;27;1084;-61
2023/12/17 01:43:08;;;;;;;;;;;;;;;1.90;76.35;97195.41;5136901;27;1987;-61
2023/12/17 01:45:34;;;;;;;;;;;;;;;2.09;75.06;97179.72;5136834;27;972;-61
2023/12/17 01:48:01;;;;;;;;;;;;;;;2.10;75.78;97184.91;5137114;27;1037;-61
2023/12/17 01:50:27;;;;;;;;;;;;;;;2.20;74.73;97187.19;5136713;27;1043;-61
2023/12/17 01:52:54;;;;;;;;;;;;;;;2.22;74.63;97185.34;5136750;27;1079;-61
2023/12/17 01:55:21;;;;;;;;;;;;;;;2.15;75.04;97196.16;5122347;27;1221;-61
2023/12/17 01:57:47;;;;;;;;;;;;;;;2.12;75.19;97198.91;5116162;28;984;-61
2023/12/17 02:00:13;;;;;;;;;;;;;;;2.00;76.55;97204.66;5116327;28;1048;-62
2023/12/17 02:02:39;;;;;;;;;;;;;;;1.85;77.61;97190.28;5116190;28;1917;-61
2023/12/17 02:05:05;;;;;;;;;;;;;;;2.04;76.41;97193.06;5116027;28;1094;-61
2023/12/17 02:07:32;;;;;;;;;;;;;;;2.19;75.96;97201.31;5116231;28;973;-61
2023/12/17 02:09:58;;;;;;;;;;;;;;;2.08;76.01;97199.09;5116046;28;984;-61
2023/12/17 02:12:29;;;;;;;;;;;;;;;2.11;75.73;97199.84;5115781;28;972;-61
2023/12/17 02:14:55;;;;;;;;;;;;;;;2.15;76.23;97196.16;5116090;28;1039;-61
2023/12/17 02:17:31;;;;;;;;;;;;;;;2.10;75.91;97203.38;5115903;28;1044;-61
2023/12/17 02:19:58;;;;;;;;;;;;;;;2.09;76.15;97200.81;5115754;28;1032;-61
2023/12/17 02:22:24;;;;;;;;;;;;;;;2.08;75.86;97205.22;5115381;28;1906;-61
2023/12/17 02:24:51;;;;;;;;;;;;;;;1.95;76.68;97199.56;5115882;28;1026;-61
2023/12/17 02:27:21;;;;;;;;;;;;;;;1.99;76.25;97197.66;5115467;28;968;-61
2023/12/17 02:29:47;;;;;;;;;;;;;;;2.06;75.81;97193.88;5115833;28;968;-61
2023/12/17 02:32:14;;;;;;;;;;;;;;;2.11;75.30;97201.63;5115776;28;968;-61
2023/12/17 02:34:40;;;;;;;;;;;;;;;2.05;75.25;97194.81;5115821;28;1063;-61
2023/12/17 02:37:06;;;;;;;;;;;;;;;2.06;75.30;97199.16;5115503;28;1015;-61
2023/12/17 02:39:32;;;;;;;;;;;;;;;2.24;75.28;97189.66;5115297;28;1027;-61
2023/12/17 02:41:58;;;;;;;;;;;;;;;2.42;74.42;97192.50;5115506;28;1910;-61
2023/12/17 02:44:24;;;;;;;;;;;;;;;2.38;73.52;97189.13;5115488;28;1053;-62
2023/12/17 02:46:50;;;;;;;;;;;;;;;2.29;73.18;97195.59;5115272;28;1092;-62
2023/12/17 02:49:16;;;;;;;;;;;;;;;2.10;74.05;97187.53;5115418;28;996;-62
2023/12/17 02:51:43;;;;;;;;;;;;;;;2.17;74.32;97187.34;5115282;28;1035;-62
2023/12/17 02:54:09;;;;;;;;;;;;;;;2.19;74.38;97185.50;5100730;27;1301;-62
2023/12/17 02:56:41;;;;;;;;;;;;;;;1.88;76.06;97194.59;5135363;27;1094;-61
2023/12/17 02:59:07;;;;;;;;;;;;;;;1.75;77.00;97197.66;5135770;27;995;-62
2023/12/17 03:01:33;;;;;;;;;;;;;;;1.67;77.64;97201.50;5135350;27;1978;-62
2023/12/17 03:03:59;;;;;;;;;;;;;;;1.64;77.52;97193.72;5135487;27;1036;-61
2023/12/17 03:06:25;;;;;;;;;;;;;;;1.74;77.30;97198.56;5134439;27;1000;-62
2023/12/17 03:08:51;;;;;;;;;;;;;;;1.69;77.91;97195.28;5135648;27;1024;-61
2023/12/17 03:11:17;;;;;;;;;;;;;;;1.91;76.57;97202.38;5135530;27;1036;-61
2023/12/17 03:13:43;;;;;;;;;;;;;;;1.94;75.22;97194.34;5135490;27;1036;-61
2023/12/17 03:16:09;;;;;;;;;;;;;;;1.82;76.26;97203.59;5135520;27;1037;-62
2023/12/17 03:18:35;;;;;;;;;;;;;;;1.74;77.10;97210.91;5135219;27;1055;-61
2023/12/17 03:21:02;;;;;;;;;;;;;;;1.91;76.40;97215.56;5135453;27;987;-61
2023/12/17 03:23:28;;;;;;;;;;;;;;;2.00;76.15;97212.56;5122263;27;1988;-62
2023/12/17 03:25:54;;;;;;;;;;;;;;;1.94;76.28;97212.81;5114402;28;1041;-61
2023/12/17 03:28:21;;;;;;;;;;;;;;;1.82;77.18;97219.44;5114350;28;1021;-61
2023/12/17 03:30:46;;;;;;;;;;;;;;;1.67;77.37;97223.47;5114544;28;1016;-61
2023/12/17 03:33:12;;;;;;;;;;;;;;;1.47;78.05;97226.81;5114580;28;986;-60
2023/12/17 03:35:38;;;;;;;;;;;;;;;1.63;77.99;97227.16;5114317;28;1040;-61
2023/12/17 03:38:04;;;;;;;;;;;;;;;1.71;77.77;97225.09;5114281;28;1021;-62
2023/12/17 03:40:30;;;;;;;;;;;;;;;1.89;77.21;97225.31;5114398;28;993;-61
2023/12/17 03:42:56;;;;;;;;;;;;;;;1.91;77.08;97224.31;5114077;28;1996;-61
2023/12/17 03:45:22;;;;;;;;;;;;;;;1.93;77.15;97221.63;5114268;28;985;-61
2023/12/17 03:47:48;;;;;;;;;;;;;;;1.92;77.32;97228.69;5114086;28;1036;-61
2023/12/17 03:50:15;;;;;;;;;;;;;;;1.90;77.16;97217.34;5114602;28;1040;-62
2023/12/17 03:52:41;;;;;;;;;;;;;;;1.93;77.15;97222.50;5096052;28;1043;-62
2023/12/17 03:55:07;;;;;;;;;;;;;;;1.99;76.35;97221.41;5102213;28;1192;-61
2023/12/17 03:57:33;;;;;;;;;;;;;;;1.84;77.19;97229.88;5102265;28;1233;-60
2023/12/17 04:00:00;;;;;;;;;;;;;;;1.57;78.77;97232.63;5113907;28;1024;-62
2023/12/17 04:02:27;;;;;;;;;;;;;;;1.61;79.05;97236.88;5113710;28;1996;-60
2023/12/17 04:04:53;;;;;;;;;;;;;;;1.70;77.69;97236.53;5114086;28;1052;-59
2023/12/17 04:07:19;;;;;;;;;;;;;;;1.74;77.61;97242.56;5113826;28;1044;-59
2023/12/17 04:09:45;;;;;;;;;;;;;;;1.80;76.61;97246.75;5113696;28;1183;-61
2023/12/17 04:12:11;;;;;;;;;;;;;;;1.88;76.54;97242.94;5114063;28;998;-59
2023/12/17 04:14:36;;;;;;;;;;;;;;;1.87;76.36;97249.09;5114046;28;970;-60
2023/12/17 04:17:03;;;;;;;;;;;;;;;1.85;76.71;97250.09;5113476;28;1036;-59
2023/12/17 04:19:29;;;;;;;;;;;;;;;1.86;75.85;97239.50;5113571;28;1076;-60
2023/12/17 04:21:54;;;;;;;;;;;;;;;1.93;75.55;97238.31;5113786;28;1910;-59
2023/12/17 04:24:20;;;;;;;;;;;;;;;2.04;74.92;97235.28;5113367;28;1199;-60
2023/12/17 04:26:47;;;;;;;;;;;;;;;1.96;75.26;97242.66;5113818;28;981;-60
2023/12/17 04:29:13;;;;;;;;;;;;;;;1.77;76.02;97252.16;5113402;28;1033;-60
2023/12/17 04:31:39;;;;;;;;;;;;;;;1.63;77.85;97253.53;5113506;28;1025;-59
2023/12/17 04:34:05;;;;;;;;;;;;;;;1.63;77.88;97255.28;5113592;28;1161;-59
2023/12/17 04:36:31;;;;;;;;;;;;;;;1.66;77.64;97250.75;5106565;28;1519;-59
2023/12/17 04:38:57;;;;;;;;;;;;;;;1.61;77.17;97250.03;5102513;28;1221;-59
2023/12/17 04:41:23;;;;;;;;;;;;;;;1.60;77.01;97252.75;5102856;28;1244;-60
2023/12/17 04:43:49;;;;;;;;;;;;;;;1.49;78.08;97258.41;5104074;28;1913;-59
2023/12/17 04:46:14;;;;;;;;;;;;;;;1.31;78.45;97255.50;5102095;28;1272;-59
2023/12/17 04:48:40;;;;;;;;;;;;;;;1.11;78.95;97250.03;5103077;28;1232;-59
2023/12/17 04:51:07;;;;;;;;;;;;;;;0.99;80.43;97267.13;5103689;28;1280;-60
2023/12/17 04:53:33;;;;;;;;;;;;;;;0.70;79.99;97262.78;5101740;28;1283;-60
2023/12/17 04:55:59;;;;;;;;;;;;;;;0.56;81.38;97265.88;5103930;28;1169;-59
2023/12/17 04:58:25;;;;;;;;;;;;;;;0.58;81.66;97264.06;5102182;28;1248;-59
2023/12/17 05:00:51;;;;;;;;;;;;;;;0.48;81.79;97266.13;5103655;28;1861;-60
2023/12/17 05:03:16;;;;;;;;;;;;;;;0.42;83.17;97271.56;5102509;28;1906;-60
2023/12/17 05:05:42;;;;;;;;;;;;;;;0.22;83.25;97266.06;5102126;28;1268;-60
2023/12/17 05:08:08;;;;;;;;;;;;;;;-0.10;82.82;97270.47;5100330;28;1312;-60
2023/12/17 05:10:34;;;;;;;;;;;;;;;-0.07;83.23;97273.03;5092659;28;1190;-59
2023/12/17 05:13:00;;;;;;;;;;;;;;;0.09;83.02;97266.41;5092635;28;993;-65
2023/12/17 05:15:26;;;;;;;;;;;;;;;0.24;82.87;97277.38;5092752;28;985;-63
2023/12/17 05:17:52;;;;;;;;;;;;;;;0.28;82.85;97269.34;5092923;28;989;-60
2023/12/17 05:20:18;;;;;;;;;;;;;;;0.23;84.69;97283.53;5092576;28;1049;-62
2023/12/17 05:22:44;;;;;;;;;;;;;;;0.06;82.86;97270.88;5098438;28;1910;-62
2023/12/17 05:25:10;;;;;;;;;;;;;;;-0.35;83.48;97273.81;5112985;28;1045;-62
2023/12/17 05:27:37;;;;;;;;;;;;;;;-0.55;85.71;97276.09;5113134;28;984;-60
2023/12/17 05:30:03;;;;;;;;;;;;;;;-0.49;86.93;97265.44;5114770;28;968;-61
2023/12/17 05:32:29;;;;;;;;;;;;;;;-0.39;85.73;97272.16;5116821;28;1046;-61
2023/12/17 05:34:55;;;;;;;;;;;;;;;-0.50;86.27;97276.84;5116809;28;1044;-62
2023/12/17 05:37:21;;;;;;;;;;;;;;;-0.38;87.18;97273.03;5116413;28;995;-62
2023/12/17 05:39:46;;;;;;;;;;;;;;;-0.35;86.58;97283.47;5116748;28;984;-61
2023/12/17 05:42:12;;;;;;;;;;;;;;;-0.32;86.37;97286.88;5116279;28;2024;-61
2023/12/17 05:44:38;;;;;;;;;;;;;;;-0.38;85.84;97292.28;5116581;28;1043;-62
2023/12/17 05:47:04;;;;;;;;;;;;;;;-0.23;86.88;97294.50;5116441;28;1044;-59
2023/12/17 05:49:30;;;;;;;;;;;;;;;-0.18;86.21;97296.16;5116530;28;976;-61
2023/12/17 05:51:56;;;;;;;;;;;;;;;-0.58;84.47;97302.50;5116270;28;973;-61
2023/12/17 05:54:22;;;;;;;;;;;;;;;-0.98;86.52;97313.09;5121999;27;1157;-60
2023/12/17 05:56:48;;;;;;;;;;;;;;;-0.83;87.60;97314.47;5133702;27;1255;-60
2023/12/17 05:59:14;;;;;;;;;;;;;;;-0.64;86.10;97320.13;5118954;27;1160;-60
2023/12/17 06:01:40;;;;;;;;;;;;;;;-0.67;84.86;97316.72;5116126;28;1909;-59
2023/12/17 06:04:06;;;;;;;;;;;;;;;-0.88;85.94;97324.22;5116194;28;1034;-60
2023/12/17 06:06:32;;;;;;;;;;;;;;;-0.69;86.33;97324.63;5115940;28;1032;-60
2023/12/17 06:08:58;;;;;;;;;;;;;;;-0.47;86.63;97324.94;5115832;28;1037;-60
2023/12/17 06:11:24;;;;;;;;;;;;;;;-0.18;84.90;97332.97;5115974;27;1154;-60
2023/12/17 06:13:50;;;;;;;;;;;;;;;0.07;83.43;97346.28;5116169;28;974;-60
2023/12/17 06:16:16;;;;;;;;;;;;;;;0.32;81.97;97338.53;5116114;28;1032;-60
2023/12/17 06:18:42;;;;;;;;;;;;;;;0.29;82.24;97339.50;5115829;28;1080;-60
2023/12/17 06:21:09;;;;;;;;;;;;;;;0.51;80.72;97337.09;5115806;28;1052;-62
2023/12/17 06:23:35;;;;;;;;;;;;;;;0.44;80.22;97340.81;5115398;28;1996;-61
2023/12/17 06:26:04;;;;;;;;;;;;;;;0.35;80.62;97349.00;5115698;28;921;-62
2023/12/17 06:28:30;;;;;;;;;;;;;;;0.24;80.87;97340.53;5115550;28;1115;-62
2023/12/17 06:30:56;;;;;;;;;;;;;;;0.31;80.28;97336.84;5097574;28;1091;-62
2023/12/17 06:33:22;;;;;;;;;;;;;;;0.96;78.63;97336.56;5115744;28;1076;-61
2023/12/17 06:35:48;;;;;;;;;;;;;;;3.56;69.38;97335.84;5115540;28;1059;-62
2023/12/17 06:38:14;;;;;;;;;;;;;;;6.42;57.96;97352.31;5115337;28;1043;-62
2023/12/17 06:40:40;;;;;;;;;;;;;;;8.18;51.82;97371.72;5097309;28;993;-62
2023/12/17 06:43:06;;;;;;;;;;;;;;;9.82;47.03;97373.84;5115590;28;1990;-62
2023/12/17 06:45:34;;;;;;;;;;;;;;;9.91;43.78;97394.63;5115223;28;1077;-63
2023/12/17 06:48:00;;;;;;;;;;;;;;;9.36;44.18;97400.91;5115545;28;995;-63
2023/12/17 06:50:26;;;;;;;;;;;;;;;9.50;44.73;97397.34;5115203;28;962;-62
2023/12/17 06:52:52;;;;;;;;;;;;;;;10.03;43.43;97400.94;5115181;28;957;-63
2023/12/17 06:55:19;;;;;;;;;;;;;;;9.81;43.66;97395.31;5114930;28;1209;-62
2023/12/17 06:57:47;;;;;;;;;;;;;;;10.20;43.15;97399.81;5115025;28;1127;-62
2023/12/17 07:00:14;;;;;;;;;;;;;;;10.45;42.43;97399.06;5114906;28;1024;-61
2023/12/17 07:02:41;;;;;;;;;;;;;;;10.83;41.84;97411.59;5096814;28;1989;-62
2023/12/17 07:05:08;;;;;;;;;;;;;;;11.07;40.88;97400.97;5114863;28;1084;-62
2023/12/17 07:07:34;;;;;;;;;;;;;;;11.17;40.37;97401.16;5114751;28;1164;-62
2023/12/17 07:10:00;;;;;;;;;;;;;;;11.90;39.22;97415.56;5096982;28;1008;-62
2023/12/17 07:12:26;;;;;;;;;;;;;;;11.93;38.69;97423.34;5115059;28;980;-62
2023/12/17 07:14:52;;;;;;;;;;;;;;;12.50;37.70;97429.81;5114702;28;1045;-62
2023/12/17 07:17:18;;;;;;;;;;;;;;;12.82;37.72;97438.06;5114881;28;954;-63
2023/12/17 07:19:44;;;;;;;;;;;;;;;13.36;36.52;97444.63;5114812;28;1009;-62
2023/12/17 07:22:10;;;;;;;;;;;;;;;12.43;37.45;97442.00;5113250;28;1898;-63
2023/12/17 07:24:36;;;;;;;;;;;;;;;10.09;41.38;97429.97;5094576;28;974;-63
2023/12/17 07:27:02;;;;;;;;;;;;;;;8.41;45.61;97415.66;5094529;28;1041;-63
2023/12/17 07:29:28;;;;;;;;;;;;;;;6.39;51.34;97403.00;5093975;28;1033;-63
2023/12/17 07:31:54;;;;;;;;;;;;;;;4.98;55.85;97386.06;5094110;28;1044;-59
2023/12/17 07:34:20;;;;;;;;;;;;;;;4.19;59.72;97380.78;5093933;28;1861;-59
2023/12/17 07:36:46;;;;;;;;;;;;;;;3.72;61.65;97374.84;5094199;28;1041;-60
2023/12/17 07:39:12;;;;;;;;;;;;;;;3.37;63.01;97371.00;5094096;28;1034;-60
2023/12/17 07:41:38;;;;;;;;;;;;;;;3.19;66.05;97369.09;5093980;28;1960;-59
2023/12/17 07:44:04;;;;;;;;;;;;;;;3.22;65.39;97367.19;5093767;28;1072;-60
2023/12/17 07:46:30;;;;;;;;;;;;;;;2.88;67.52;97363.25;5093796;28;982;-59
2023/12/17 07:48:56;;;;;;;;;;;;;;;2.95;66.51;97373.59;5094054;28;928;-60
2023/12/17 07:51:22;;;;;;;;;;;;;;;2.94;67.11;97364.81;5093843;28;974;-59
2023/12/17 07:53:48;;;;;;;;;;;;;;;3.09;67.62;97376.53;5093965;28;1206;-59
2023/12/17 07:56:14;;;;;;;;;;;;;;;3.25;66.04;97374.16;5114042;28;961;-60
2023/12/17 07:58:40;;;;;;;;;;;;;;;3.21;65.96;97364.63;5114057;28;1036;-60
2023/12/17 08:01:06;;;;;;;;;;;;;;;3.05;67.60;97374.94;5114003;28;1004;-60
2023/12/17 08:03:32;;;;;;;;;;;;;;;3.25;67.13;97384.72;5113694;28;1917;-60
2023/12/17 08:05:58;;;;;;;;;;;;;;;3.32;65.87;97378.28;5095667;28;1080;-60
2023/12/17 08:08:24;;;;;;;;;;;;;;;3.22;66.36;97368.97;5114078;28;1044;-59
2023/12/17 08:10:50;;;;;;;;;;;;;;;3.21;67.02;97373.41;5114032;28;1057;-60
2023/12/17 08:13:16;;;;;;;;;;;;;;;3.33;65.54;97375.53;5113679;28;1064;-59
2023/12/17 08:15:42;;;;;;;;;;;;;;;3.35;65.44;97374.63;5114007;28;966;-59
2023/12/17 08:18:08;;;;;;;;;;;;;;;3.41;65.46;97379.66;5114080;28;1076;-60
2023/12/17 08:20:34;;;;;;;;;;;;;;;3.64;63.53;97384.88;5113736;28;930;-59
2023/12/17 08:23:01;;;;;;;;;;;;;;;3.70;63.24;97389.91;5121992;28;1910;-60
2023/12/17 08:25:27;;;;;;;;;;;;;;;3.51;67.11;97381.03;5134284;28;1010;-63
2023/12/17 08:27:53;;;;;;;;;;;;;;;3.17;69.30;97390.31;5134154;28;905;-64
2023/12/17 08:30:19;;;;;;;;;;;;;;;3.07;70.03;97391.59;5134117;28;1001;-62
2023/12/17 08:32:45;;;;;;;;;;;;;;;3.04;71.19;97399.66;5133931;28;1048;-58
2023/12/17 08:35:11;;;;;;;;;;;;;;;3.02;71.99;97404.16;5134266;28;1018;-60
2023/12/17 08:37:37;;;;;;;;;;;;;;;2.81;71.28;97405.81;5134285;28;963;-61
2023/12/17 08:40:03;;;;;;;;;;;;;;;2.59;71.63;97409.25;5134224;28;1059;-62
2023/12/17 08:42:29;;;;;;;;;;;;;;;2.64;71.72;97417.88;5133824;28;1913;-62
2023/12/17 08:44:55;;;;;;;;;;;;;;;2.85;69.58;97400.34;5115782;28;1138;-61
2023/12/17 08:47:22;;;;;;;;;;;;;;;3.01;68.56;97397.13;5134106;28;972;-62
2023/12/17 08:49:48;;;;;;;;;;;;;;;3.27;69.70;97396.94;5134163;28;1123;-62
2023/12/17 08:52:13;;;;;;;;;;;;;;;3.35;68.78;97386.06;5133765;28;1032;-62
2023/12/17 08:54:39;;;;;;;;;;;;;;;3.56;67.49;97384.31;5125620;28;1228;-62
2023/12/17 09:05:13;;;;;;;;;;;;;;;4.64;65.40;97400.88;5131614;27;1393;-60
2023/12/17 09:07:39;;;;;;;;;;;;;;;4.73;63.14;97389.84;5131487;27;1153;-60
2023/12/17 09:10:05;;;;;;;;;;;;;;;5.06;63.51;97384.75;5131636;27;1023;-60
2023/12/17 09:12:31;;;;;;;;;;;;;;;5.19;62.93;97387.69;5131735;27;935;-61
2023/12/17 09:14:57;;;;;;;;;;;;;;;5.37;60.71;97385.97;5131712;27;1071;-60
2023/12/17 09:17:24;;;;;;;;;;;;;;;5.31;60.85;97385.38;5131543;28;1031;-60
2023/12/17 09:19:50;;;;;;;;;;;;;;;5.15;59.75;97386.13;5131527;27;992;-60
2023/12/17 09:22:17;;;;;;;;;;;;;;;5.38;60.87;97366.44;5131399;27;1063;-60
2023/12/17 09:24:43;;;;;;;;;;;;;;;5.80;58.84;97367.03;5131456;27;1909;-60
2023/12/17 09:27:09;;;;;;;;;;;;;;;6.04;58.09;97357.00;5131486;28;1003;-59
2023/12/17 09:29:35;;;;;;;;;;;;;;;6.24;55.42;97351.50;5131061;28;1020;-60
2023/12/17 09:32:01;;;;;;;;;;;;;;;6.27;56.98;97350.47;5131447;27;1043;-59
2023/12/17 09:34:27;;;;;;;;;;;;;;;6.54;56.15;97358.78;5130975;27;1047;-59
2023/12/17 09:36:53;;;;;;;;;;;;;;;6.27;55.50;97350.47;5131303;27;969;-60
2023/12/17 09:39:19;;;;;;;;;;;;;;;6.42;54.96;97356.78;5130863;28;1036;-60
2023/12/17 09:41:46;;;;;;;;;;;;;;;6.63;55.18;97357.44;5130951;27;1004;-60
2023/12/17 09:44:12;;;;;;;;;;;;;;;6.77;55.09;97365.53;5130937;27;1913;-59
2023/12/17 09:46:38;;;;;;;;;;;;;;;6.83;54.75;97364.34;5130932;27;1115;-59
2023/12/17 09:49:04;;;;;;;;;;;;;;;6.75;53.38;97355.91;5130828;28;1029;-59
2023/12/17 09:51:33;;;;;;;;;;;;;;;6.83;55.26;97346.59;5130656;28;1048;-59
2023/12/17 09:53:59;;;;;;;;;;;;;;;6.45;54.90;97351.31;5130776;27;1193;-59
2023/12/17 09:56:25;;;;;;;;;;;;;;;6.80;54.15;97345.88;5130777;27;1036;-59
2023/12/17 09:58:51;;;;;;;;;;;;;;;7.32;53.87;97343.00;5130619;27;1059;-59
2023/12/17 10:01:17;;;;;;;;;;;;;;;7.48;51.54;97350.09;5130924;28;1056;-59
2023/12/17 10:03:43;;;;;;;;;;;;;;;7.40;52.44;97359.38;5130630;28;1994;-58
2023/12/17 10:06:09;;;;;;;;;;;;;;;7.15;51.20;97361.69;5130708;28;1034;-59
2023/12/17 10:08:36;;;;;;;;;;;;;;;7.24;52.87;97354.03;5130679;27;1035;-59
2023/12/17 10:11:02;;;;;;;;;;;;;;;7.51;52.65;97361.44;5129434;28;1043;-58
2023/12/17 10:13:29;;;;;;;;;;;;;;;7.76;51.64;97360.84;5130321;27;968;-59
2023/12/17 10:15:55;;;;;;;;;;;;;;;7.90;51.88;97362.69;5120994;27;968;-59
2023/12/17 10:18:22;;;;;;;;;;;;;;;8.12;50.88;97364.06;5116779;28;989;-59
2023/12/17 10:20:48;;;;;;;;;;;;;;;8.16;50.31;97373.63;5116741;28;976;-59
2023/12/17 10:23:15;;;;;;;;;;;;;;;8.16;51.03;97362.97;5116414;28;1917;-59
2023/12/17 10:25:42;;;;;;;;;;;;;;;7.80;50.11;97372.19;5116693;27;968;-59
2023/12/17 10:28:08;;;;;;;;;;;;;;;7.83;51.34;97366.66;5116774;28;1055;-59
2023/12/17 10:30:35;;;;;;;;;;;;;;;8.19;50.77;97370.75;5116779;28;995;-59
2023/12/17 10:33:01;;;;;;;;;;;;;;;8.35;49.77;97368.03;5116470;28;1047;-58
2023/12/17 10:35:31;;;;;;;;;;;;;;;8.31;51.16;97363.81;5116684;28;1000;-59
2023/12/17 10:38:01;;;;;;;;;;;;;;;8.49;48.95;97367.22;5116514;28;979;-59
2023/12/17 10:40:28;;;;;;;;;;;;;;;8.26;49.14;97366.78;5116578;28;1050;-59
2023/12/17 10:42:58;;;;;;;;;;;;;;;7.92;50.48;97355.47;5116462;28;1905;-59
2023/12/17 10:45:25;;;;;;;;;;;;;;;7.98;50.64;97356.91;5116142;28;1024;-59
2023/12/17 10:47:56;;;;;;;;;;;;;;;7.51;50.24;97344.56;5116706;28;988;-58
2023/12/17 10:50:23;;;;;;;;;;;;;;;7.68;52.32;97330.28;5116408;28;1011;-59
2023/12/17 10:52:50;;;;;;;;;;;;;;;7.70;49.83;97328.38;5116512;28;988;-59
2023/12/17 10:55:16;;;;;;;;;;;;;;;8.02;51.33;97331.78;5115888;28;1153;-58
2023/12/17 10:57:52;;;;;;;;;;;;;;;8.39;49.91;97314.44;5115989;28;1229;-59
2023/12/17 11:00:21;;;;;;;;;;;;;;;8.84;49.08;97319.69;5116122;28;896;-59
2023/12/17 11:02:49;;;;;;;;;;;;;;;8.68;48.38;97317.13;5114725;28;1242;-59
2023/12/17 11:05:16;;;;;;;;;;;;;;;7.72;50.57;97305.19;5114826;28;1034;-59
2023/12/17 11:07:42;;;;;;;;;;;;;;;8.01;50.13;97306.97;5114648;28;1080;-59
2023/12/17 11:10:11;;;;;;;;;;;;;;;8.34;49.94;97297.84;5115979;28;1040;-59
2023/12/17 11:12:39;;;;;;;;;;;;;;;7.81;49.84;97292.16;5116126;28;973;-59
2023/12/17 11:15:06;;;;;;;;;;;;;;;7.38;52.57;97277.88;5116234;28;973;-58
2023/12/17 11:17:32;;;;;;;;;;;;;;;7.28;53.31;97268.72;5115900;28;1059;-59
2023/12/17 11:20:02;;;;;;;;;;;;;;;7.57;53.65;97269.66;5115766;28;1865;-59
2023/12/17 11:22:28;;;;;;;;;;;;;;;7.49;50.96;97270.13;5115471;28;989;-59
2023/12/17 11:28:18;;;;;;;;;;;;;;;6.76;53.93;97252.13;5131574;27;1309185;-59
2023/12/17 11:30:47;;;;;;;;;;;;;;;6.83;54.80;97232.22;5173886;27;1055;-59
2023/12/17 11:33:14;;;;;;;;;;;;;;;6.84;53.08;97233.06;5173562;27;967;-59
2023/12/17 11:35:40;;;;;;;;;;;;;;;6.66;53.65;97221.69;5173491;27;1019;-59
2023/12/17 11:38:06;;;;;;;;;;;;;;;6.50;53.31;97220.84;5154812;27;980;-59
2023/12/17 11:40:32;;;;;;;;;;;;;;;6.48;57.98;97214.75;5173445;27;1051;-59
2023/12/17 11:42:59;;;;;;;;;;;;;;;6.68;56.48;97217.16;5173535;27;1041;-59
2023/12/17 11:45:31;;;;;;;;;;;;;;;6.63;56.32;97230.69;5172920;27;1023;-60
2023/12/17 11:48:04;;;;;;;;;;;;;;;6.59;56.70;97222.97;5173312;27;1999;-59
2023/12/17 11:50:38;;;;;;;;;;;;;;;6.48;56.36;97220.06;5172708;27;1125;-58
2023/12/17 11:53:05;;;;;;;;;;;;;;;6.42;57.13;97219.44;5173458;27;1043;-60
2023/12/17 11:55:40;;;;;;;;;;;;;;;6.36;55.07;97233.09;5157152;27;1204;-59
2023/12/17 11:58:06;;;;;;;;;;;;;;;6.59;55.34;97229.16;5151712;27;1151;-60
2023/12/17 12:00:32;;;;;;;;;;;;;;;6.60;56.22;97224.69;5151835;27;1067;-60
2023/12/17 12:02:58;;;;;;;;;;;;;;;6.50;56.64;97226.16;5151593;27;1032;-59
2023/12/17 12:05:24;;;;;;;;;;;;;;;6.53;57.91;97221.53;5151529;27;1087;-59
2023/12/17 12:07:57;;;;;;;;;;;;;;;6.69;58.07;97240.13;5151660;27;1990;-59
2023/12/17 12:10:23;;;;;;;;;;;;;;;6.52;56.36;97232.22;5151429;27;1083;-60
2023/12/17 12:13:02;;;;;;;;;;;;;;;6.48;55.90;97231.53;5151649;27;1029;-57
2023/12/17 12:15:28;;;;;;;;;;;;;;;6.23;55.78;97240.84;5151637;27;1040;-57
2023/12/17 12:17:54;;;;;;;;;;;;;;;6.16;55.43;97230.66;5151479;27;980;-58
2023/12/17 12:20:38;;;;;;;;;;;;;;;6.50;56.21;97216.38;5151333;27;1044;-59
2023/12/17 12:23:10;;;;;;;;;;;;;;;6.49;56.15;97211.13;5151375;27;1126;-60
2023/12/17 12:25:38;;;;;;;;;;;;;;;6.34;56.99;97196.91;5151423;27;1030;-62
2023/12/17 12:28:15;;;;;;;;;;;;;;;6.27;56.64;97195.53;5151125;27;1991;-61
2023/12/17 12:30:41;;;;;;;;;;;;;;;6.37;56.85;97194.91;5151232;27;1016;-59
2023/12/17 12:33:08;;;;;;;;;;;;;;;6.35;56.67;97188.84;5151462;27;977;-61
2023/12/17 12:35:35;;;;;;;;;;;;;;;6.19;58.36;97183.53;5151035;27;1083;-57
2023/12/17 12:38:03;;;;;;;;;;;;;;;6.00;57.95;97182.81;5146341;27;1030;-57
2023/12/17 12:40:33;;;;;;;;;;;;;;;6.20;58.23;97177.28;5137289;27;1051;-63
2023/12/17 12:43:02;;;;;;;;;;;;;;;6.38;57.45;97175.38;5137468;27;1060;-61
2023/12/17 12:45:28;;;;;;;;;;;;;;;6.24;57.39;97169.97;5137328;27;1059;-59
2023/12/17 12:47:54;;;;;;;;;;;;;;;6.07;57.98;97168.28;5136987;27;1984;-55
2023/12/17 12:50:20;;;;;;;;;;;;;;;5.98;57.28;97169.63;5136892;27;951;-58
2023/12/17 12:52:46;;;;;;;;;;;;;;;5.78;57.49;97172.47;5136975;27;1111;-57
2023/12/17 12:55:12;;;;;;;;;;;;;;;5.63;59.20;97175.00;5137028;27;1188;-57
2023/12/17 12:57:38;;;;;;;;;;;;;;;5.61;60.24;97166.25;5137039;27;973;-57
2023/12/17 13:00:05;;;;;;;;;;;;;;;5.58;60.34;97170.88;5136781;27;1065;-57
2023/12/17 13:02:32;;;;;;;;;;;;;;;5.56;59.22;97178.91;5136727;27;1076;-58
2023/12/17 13:04:58;;;;;;;;;;;;;;;5.59;58.94;97177.88;5136713;27;1036;-57
2023/12/17 13:07:24;;;;;;;;;;;;;;;5.67;60.73;97171.25;5136732;27;1910;-57
2023/12/17 13:09:51;;;;;;;;;;;;;;;5.63;61.42;97168.81;5136922;27;1044;-57
2023/12/17 13:12:17;;;;;;;;;;;;;;;5.53;60.64;97172.91;5136851;27;1055;-57
2023/12/17 13:14:43;;;;;;;;;;;;;;;5.44;60.32;97174.22;5136855;27;1014;-57
2023/12/17 13:17:09;;;;;;;;;;;;;;;5.53;59.95;97171.09;5137033;27;968;-57